createdAt,value
2018-04-15T00:00:27.078Z,89.37
2018-04-15T00:02:54.661Z,89.51
2018-04-15T00:05:22.192Z,89.66
2018-04-15T00:07:49.727Z,89.71
2018-04-15T00:10:17.258Z,88.39
2018-04-15T00:12:44.869Z,88.10
2018-04-15T00:15:12.486Z,88.52
2018-04-15T00:17:40.045Z,89.31
2018-04-15T00:20:07.556Z,87.78
2018-04-15T00:22:35.809Z,87.72
2018-04-15T00:25:03.377Z,88.57
2018-04-15T00:27:30.941Z,88.97
2018-04-15T00:29:58.481Z,90.02
2018-04-15T00:32:26.339Z,89.79
2018-04-15T00:34:53.939Z,90.70
2018-04-15T00:37:21.498Z,91.39
2018-04-15T00:39:49.034Z,92.00
2018-04-15T00:42:16.690Z,92.41
2018-04-15T00:44:44.234Z,92.77
2018-04-15T00:47:11.766Z,92.86
2018-04-15T00:49:39.286Z,93.04
2018-04-15T00:52:27.880Z,93.12
2018-04-15T00:54:55.461Z,93.27
2018-04-15T00:57:23.077Z,93.65
2018-04-15T00:59:50.613Z,93.83
2018-04-15T01:02:18.138Z,94.00
2018-04-15T01:04:45.690Z,94.17
2018-04-15T01:07:13.250Z,94.43
2018-04-15T01:09:40.805Z,94.67
2018-04-15T01:12:08.368Z,94.91
2018-04-15T01:14:35.972Z,94.88
2018-04-15T01:17:03.556Z,94.99
2018-04-15T01:19:31.117Z,95.27
2018-04-15T01:21:58.669Z,95.17
2018-04-15T01:24:26.200Z,95.18
2018-04-15T01:26:53.715Z,95.34
2018-04-15T01:29:21.287Z,95.41
2018-04-15T01:31:48.787Z,95.31
2018-04-15T01:34:16.347Z,95.26
2018-04-15T01:36:43.898Z,95.20
2018-04-15T01:39:11.655Z,95.12
2018-04-15T01:41:39.186Z,95.28
2018-04-15T01:44:06.746Z,95.58
2018-04-15T01:46:34.325Z,95.66
2018-04-15T01:49:01.885Z,95.85
2018-04-15T01:51:29.399Z,95.96
2018-04-15T01:53:57.028Z,95.90
2018-04-15T01:56:24.530Z,95.77
2018-04-15T01:58:52.059Z,95.78
2018-04-15T02:01:19.587Z,95.73
2018-04-15T02:03:47.154Z,95.81
2018-04-15T02:06:14.707Z,95.83
2018-04-15T02:08:42.293Z,95.94
2018-04-15T02:11:09.846Z,95.98
2018-04-15T02:13:37.393Z,96.11
2018-04-15T02:16:04.975Z,96.43
2018-04-15T02:18:32.483Z,96.40
2018-04-15T02:21:00.035Z,96.34
2018-04-15T02:23:27.598Z,96.44
2018-04-15T02:25:55.151Z,96.41
2018-04-15T02:28:22.733Z,96.44
2018-04-15T02:30:50.286Z,96.48
2018-04-15T02:33:17.814Z,96.52
2018-04-15T02:35:45.420Z,96.59
2018-04-15T02:38:13.001Z,96.78
2018-04-15T02:40:40.547Z,96.87
2018-04-15T02:43:08.114Z,96.90
2018-04-15T02:45:35.649Z,97.04
2018-04-15T02:48:03.196Z,97.11
2018-04-15T02:50:30.752Z,97.03
2018-04-15T02:52:58.324Z,97.03
2018-04-15T02:55:25.859Z,96.97
2018-04-15T02:57:53.391Z,96.92
2018-04-15T03:00:20.967Z,97.02
2018-04-15T03:02:48.488Z,97.00
2018-04-15T03:05:16.053Z,96.94
2018-04-15T03:07:43.584Z,96.94
2018-04-15T03:10:11.161Z,96.94
2018-04-15T03:12:38.697Z,96.94
2018-04-15T03:15:06.267Z,96.92
2018-04-15T03:17:33.790Z,96.88
2018-04-15T03:20:01.390Z,96.90
2018-04-15T03:22:28.903Z,96.88
2018-04-15T03:24:56.482Z,96.88
2018-04-15T03:27:23.995Z,96.86
2018-04-15T03:29:51.530Z,96.73
2018-04-15T03:32:19.030Z,96.63
2018-04-15T03:34:46.598Z,96.56
2018-04-15T03:37:14.162Z,96.53
2018-04-15T03:39:41.674Z,96.49
2018-04-15T03:42:09.193Z,96.56
2018-04-15T03:44:36.715Z,96.61
2018-04-15T03:47:04.249Z,96.69
2018-04-15T03:49:31.777Z,96.80
2018-04-15T03:51:59.380Z,96.83
2018-04-15T03:54:26.909Z,96.79
2018-04-15T03:56:54.458Z,96.95
2018-04-15T03:59:21.945Z,96.90
2018-04-15T04:01:49.490Z,96.90
2018-04-15T04:04:17.074Z,97.06
2018-04-15T04:06:44.603Z,96.92
2018-04-15T04:09:12.107Z,97.02
2018-04-15T04:11:39.664Z,97.17
2018-04-15T04:14:07.170Z,97.39
2018-04-15T04:16:34.709Z,97.59
2018-04-15T04:19:14.033Z,97.53
2018-04-15T04:21:53.304Z,97.66
2018-04-15T04:24:33.373Z,97.44
2018-04-15T04:27:00.971Z,97.52
2018-04-15T04:29:28.555Z,97.61
2018-04-15T04:31:56.131Z,97.67
2018-04-15T04:34:23.692Z,97.67
2018-04-15T04:36:51.218Z,97.61
2018-04-15T04:39:18.742Z,97.60
2018-04-15T04:41:46.295Z,97.63
2018-04-15T04:44:13.804Z,97.60
2018-04-15T04:46:41.386Z,97.62
2018-04-15T04:49:08.923Z,97.65
2018-04-15T04:51:36.483Z,97.72
2018-04-15T04:54:04.038Z,97.82
2018-04-15T04:56:31.564Z,97.83
2018-04-15T04:58:59.217Z,97.76
2018-04-15T05:01:26.788Z,97.68
2018-04-15T05:03:54.333Z,97.63
2018-04-15T05:06:21.865Z,97.64
2018-04-15T05:08:49.470Z,97.68
2018-04-15T05:11:17.038Z,97.69
2018-04-15T05:13:44.600Z,97.67
2018-04-15T05:16:12.152Z,97.67
2018-04-15T05:18:39.695Z,97.67
2018-04-15T05:21:07.218Z,97.70
2018-04-15T05:23:34.785Z,97.72
2018-04-15T05:26:02.379Z,97.70
2018-04-15T05:28:29.961Z,97.65
2018-04-15T05:30:57.487Z,97.58
2018-04-15T05:33:25.030Z,97.45
2018-04-15T05:35:52.574Z,97.27
2018-04-15T05:38:20.142Z,97.19
2018-04-15T05:40:47.661Z,97.12
2018-04-15T05:43:15.214Z,97.12
2018-04-15T05:45:42.746Z,97.26
2018-04-15T05:48:10.282Z,97.29
2018-04-15T05:50:37.838Z,97.29
2018-04-15T05:53:05.422Z,97.32
2018-04-15T05:55:32.937Z,97.36
2018-04-15T05:58:00.505Z,97.37
2018-04-15T06:00:28.054Z,97.33
2018-04-15T06:02:55.627Z,97.30
2018-04-15T06:05:23.191Z,97.30
2018-04-15T06:07:50.759Z,97.18
2018-04-15T06:10:18.263Z,96.91
2018-04-15T06:12:45.835Z,96.68
2018-04-15T06:15:13.322Z,96.20
2018-04-15T06:17:40.887Z,95.85
2018-04-15T06:20:08.408Z,95.40
2018-04-15T06:22:35.990Z,94.75
2018-04-15T06:25:03.842Z,94.44
2018-04-15T06:27:31.402Z,93.97
2018-04-15T06:29:58.934Z,93.42
2018-04-15T06:32:26.469Z,92.89
2018-04-15T06:34:53.967Z,92.10
2018-04-15T06:37:27.793Z,91.60
2018-04-15T06:39:55.315Z,91.41
2018-04-15T06:42:22.839Z,91.13
2018-04-15T06:44:50.376Z,90.61
2018-04-15T06:47:17.931Z,90.26
2018-04-15T06:49:45.471Z,89.96
2018-04-15T06:52:12.995Z,89.57
2018-04-15T06:54:40.552Z,88.88
2018-04-15T06:57:08.141Z,88.75
2018-04-15T06:59:35.742Z,88.37
2018-04-15T07:02:03.305Z,87.92
2018-04-15T07:04:30.846Z,88.48
2018-04-15T07:06:58.366Z,88.55
2018-04-15T07:09:25.895Z,90.15
2018-04-15T07:11:53.442Z,88.86
2018-04-15T07:14:20.991Z,89.54
2018-04-15T07:16:48.498Z,88.57
2018-04-15T07:19:16.332Z,89.34
2018-04-15T07:21:43.947Z,87.71
2018-04-15T07:24:11.478Z,87.55
2018-04-15T07:26:39.109Z,87.56
2018-04-15T07:29:06.655Z,85.99
2018-04-15T07:31:34.185Z,85.31
2018-04-15T07:34:01.703Z,83.19
2018-04-15T07:36:29.252Z,85.32
2018-04-15T07:38:56.737Z,83.79
2018-04-15T07:41:24.242Z,83.92
2018-04-15T07:43:51.791Z,84.37
2018-04-15T07:46:19.315Z,84.08
2018-04-15T07:48:46.877Z,84.33
2018-04-15T07:51:14.430Z,84.02
2018-04-15T07:53:41.952Z,85.53
2018-04-15T07:56:09.496Z,84.33
2018-04-15T07:58:37.106Z,81.10
2018-04-15T08:01:04.598Z,82.58
2018-04-15T08:03:32.171Z,83.47
2018-04-15T08:05:59.715Z,82.31
2018-04-15T08:08:27.286Z,80.46
2018-04-15T08:10:54.814Z,79.02
2018-04-15T08:13:22.297Z,81.38
2018-04-15T08:15:49.874Z,79.59
2018-04-15T08:18:17.446Z,78.13
2018-04-15T08:20:44.993Z,78.07
2018-04-15T08:23:12.514Z,79.08
2018-04-15T08:25:40.092Z,76.24
2018-04-15T08:28:07.646Z,74.15
2018-04-15T08:30:35.160Z,74.26
2018-04-15T08:33:02.710Z,75.09
2018-04-15T08:35:30.534Z,76.98
2018-04-15T08:37:58.067Z,76.90
2018-04-15T08:40:25.603Z,73.88
2018-04-15T08:42:53.142Z,75.09
2018-04-15T08:45:20.674Z,72.16
2018-04-15T08:47:48.169Z,76.24
2018-04-15T08:50:15.699Z,77.34
2018-04-15T08:52:43.194Z,77.51
2018-04-15T08:55:10.721Z,78.82
2018-04-15T08:57:38.274Z,76.96
2018-04-15T09:00:05.781Z,76.65
2018-04-15T09:02:33.247Z,78.86
2018-04-15T09:05:00.774Z,76.26
2018-04-15T09:07:28.252Z,75.44
2018-04-15T09:09:55.761Z,74.60
2018-04-15T09:12:23.215Z,76.12
2018-04-15T09:14:50.716Z,72.13
2018-04-15T09:17:18.225Z,74.93
2018-04-15T09:19:45.957Z,74.01
2018-04-15T09:22:13.438Z,74.69
2018-04-15T09:24:40.920Z,74.00
2018-04-15T09:27:08.406Z,71.85
2018-04-15T09:29:35.905Z,71.50
2018-04-15T09:32:03.381Z,70.64
2018-04-15T09:34:30.849Z,71.67
2018-04-15T09:36:58.336Z,72.98
2018-04-15T09:39:25.790Z,73.76
2018-04-15T09:41:53.271Z,73.15
2018-04-15T09:44:20.738Z,73.34
2018-04-15T09:46:48.319Z,73.71
2018-04-15T09:49:15.781Z,73.81
2018-04-15T09:51:43.273Z,71.72
2018-04-15T09:54:10.730Z,73.67
2018-04-15T09:56:38.205Z,72.78
2018-04-15T09:59:05.663Z,75.17
2018-04-15T10:01:33.145Z,72.31
2018-04-15T10:04:00.677Z,72.49
2018-04-15T10:06:28.177Z,71.75
2018-04-15T10:08:55.638Z,71.20
2018-04-15T10:11:23.120Z,71.30
2018-04-15T10:13:50.587Z,71.28
2018-04-15T10:16:18.065Z,72.04
2018-04-15T10:18:45.527Z,70.00
2018-04-15T10:21:13.038Z,70.63
2018-04-15T10:23:40.547Z,68.00
2018-04-15T10:26:08.036Z,70.31
2018-04-15T10:28:35.498Z,69.70
2018-04-15T10:31:02.984Z,70.10
2018-04-15T10:33:30.437Z,65.21
2018-04-15T10:35:57.914Z,65.85
2018-04-15T10:38:25.373Z,64.68
2018-04-15T10:40:52.864Z,62.68
2018-04-15T10:43:20.346Z,62.79
2018-04-15T10:45:47.821Z,62.66
2018-04-15T10:48:15.293Z,61.51
2018-04-15T10:50:42.774Z,63.16
2018-04-15T10:53:10.238Z,61.66
2018-04-15T10:55:37.726Z,62.44
2018-04-15T10:58:05.196Z,62.15
2018-04-15T11:00:32.658Z,59.33
2018-04-15T11:03:00.153Z,60.42
2018-04-15T11:05:27.625Z,61.80
2018-04-15T11:07:55.110Z,61.19
2018-04-15T11:10:22.585Z,60.92
2018-04-15T11:12:50.063Z,60.31
2018-04-15T11:15:17.531Z,59.81
2018-04-15T11:17:45.022Z,59.76
2018-04-15T11:20:12.483Z,57.94
2018-04-15T11:22:39.974Z,58.48
2018-04-15T11:25:07.425Z,57.44
2018-04-15T11:27:34.907Z,61.01
2018-04-15T11:30:02.369Z,59.73
2018-04-15T11:32:29.863Z,56.01
2018-04-15T11:34:57.335Z,55.74
2018-04-15T11:37:24.809Z,55.23
2018-04-15T11:39:52.266Z,56.84
2018-04-15T11:42:19.757Z,57.44
2018-04-15T11:44:47.213Z,59.87
2018-04-15T11:47:14.702Z,56.66
2018-04-15T11:49:42.169Z,53.89
2018-04-15T11:52:09.657Z,55.22
2018-04-15T11:54:37.118Z,55.42
2018-04-15T11:57:04.619Z,56.69
2018-04-15T11:59:32.085Z,56.03
2018-04-15T12:01:59.568Z,55.31
2018-04-15T12:04:27.030Z,54.44
2018-04-15T12:06:54.517Z,58.78
2018-04-15T12:09:21.986Z,55.86
2018-04-15T12:11:49.491Z,58.51
2018-04-15T12:14:16.951Z,60.67
2018-04-15T12:16:44.456Z,57.00
2018-04-15T12:19:11.940Z,58.42
2018-04-15T12:21:39.423Z,55.46
2018-04-15T12:24:06.895Z,57.20
2018-04-15T12:26:34.383Z,55.46
2018-04-15T12:29:01.862Z,52.97
2018-04-15T12:31:29.326Z,54.35
2018-04-15T12:33:56.897Z,53.50
2018-04-15T12:36:24.383Z,52.82
2018-04-15T12:38:51.869Z,51.29
2018-04-15T12:41:19.324Z,51.08
2018-04-15T12:43:46.845Z,51.62
2018-04-15T12:46:14.301Z,51.77
2018-04-15T12:48:41.786Z,49.83
2018-04-15T12:51:09.254Z,49.67
2018-04-15T12:53:36.773Z,49.65
2018-04-15T12:56:04.259Z,51.09
2018-04-15T12:58:31.743Z,50.47
2018-04-15T13:00:59.213Z,50.93
2018-04-15T13:03:26.697Z,50.97
2018-04-15T13:05:54.206Z,48.87
2018-04-15T13:08:21.687Z,47.81
2018-04-15T13:10:49.142Z,46.09
2018-04-15T13:13:16.630Z,44.14
2018-04-15T13:15:44.081Z,43.30
2018-04-15T13:18:11.574Z,46.92
2018-04-15T13:20:39.037Z,46.39
2018-04-15T13:23:06.531Z,47.97
2018-04-15T13:25:33.985Z,43.37
2018-04-15T13:28:01.470Z,43.32
2018-04-15T13:30:28.934Z,40.49
2018-04-15T13:32:56.410Z,40.01
2018-04-15T13:35:23.880Z,39.46
2018-04-15T13:37:51.364Z,38.67
2018-04-15T13:40:18.899Z,36.03
2018-04-15T13:42:46.374Z,30.23
2018-04-15T13:45:14.186Z,33.71
2018-04-15T13:47:41.669Z,34.52
2018-04-15T13:50:09.159Z,35.78
2018-04-15T13:52:36.632Z,37.96
2018-04-15T13:55:04.140Z,37.93
2018-04-15T13:57:31.597Z,36.68
2018-04-15T13:59:59.229Z,35.42
2018-04-15T14:02:26.702Z,34.19
2018-04-15T14:04:54.188Z,31.17
2018-04-15T14:07:21.653Z,33.92
2018-04-15T14:09:49.134Z,32.49
2018-04-15T14:12:16.606Z,33.10
2018-04-15T14:14:44.099Z,31.55
2018-04-15T14:17:11.561Z,37.51
2018-04-15T14:19:39.042Z,36.36
2018-04-15T14:22:06.527Z,35.19
2018-04-15T14:24:34.009Z,36.66
2018-04-15T14:27:01.484Z,40.50
2018-04-15T14:29:28.961Z,42.17
2018-04-15T14:31:56.436Z,44.52
2018-04-15T14:34:23.934Z,46.35
2018-04-15T14:36:51.402Z,42.84
2018-04-15T14:39:18.887Z,42.63
2018-04-15T14:41:46.430Z,39.19
2018-04-15T14:44:13.960Z,35.11
2018-04-15T14:46:41.447Z,35.54
2018-04-15T14:49:09.170Z,34.75
2018-04-15T14:51:36.653Z,33.32
2018-04-15T14:54:04.131Z,33.19
2018-04-15T14:56:31.634Z,37.04
2018-04-15T14:58:59.116Z,35.49
2018-04-15T15:01:26.605Z,37.07
2018-04-15T15:03:54.096Z,36.47
2018-04-15T15:06:21.560Z,37.75
2018-04-15T15:08:49.037Z,37.87
2018-04-15T15:11:16.497Z,38.59
2018-04-15T15:13:43.994Z,39.67
2018-04-15T15:16:11.549Z,41.24
2018-04-15T15:18:39.018Z,42.34
2018-04-15T15:21:06.512Z,42.81
2018-04-15T15:23:33.988Z,43.26
2018-04-15T15:26:01.498Z,43.67
2018-04-15T15:28:29.016Z,41.89
2018-04-15T15:30:56.478Z,42.87
2018-04-15T15:33:23.951Z,42.11
2018-04-15T15:35:51.462Z,41.17
2018-04-15T15:38:18.928Z,40.96
2018-04-15T15:40:46.422Z,42.65
2018-04-15T15:43:13.886Z,42.05
2018-04-15T15:45:41.366Z,44.16
2018-04-15T15:48:08.886Z,44.39
2018-04-15T15:50:36.369Z,45.66
2018-04-15T15:53:03.828Z,47.89
2018-04-15T15:55:31.301Z,47.73
2018-04-15T15:57:58.760Z,46.16
2018-04-15T16:00:26.258Z,47.16
2018-04-15T16:02:53.721Z,48.91
2018-04-15T16:05:21.212Z,50.26
2018-04-15T16:07:48.669Z,49.48
2018-04-15T16:10:17.019Z,49.78
2018-04-15T16:12:44.485Z,48.68
2018-04-15T16:15:11.970Z,48.54
2018-04-15T16:17:39.420Z,48.72
2018-04-15T16:20:06.901Z,47.62
2018-04-15T16:22:34.365Z,47.68
2018-04-15T16:25:01.845Z,46.00
2018-04-15T16:27:29.318Z,47.37
2018-04-15T16:29:56.802Z,47.86
2018-04-15T16:32:24.265Z,48.03
2018-04-15T16:34:52.349Z,48.89
2018-04-15T16:37:20.961Z,50.78
2018-04-15T16:39:50.956Z,50.06
2018-04-15T16:42:18.414Z,51.16
2018-04-15T16:44:45.872Z,52.26
2018-04-15T16:47:13.601Z,52.39
2018-04-15T16:49:41.373Z,52.13
2018-04-15T16:52:08.862Z,52.75
2018-04-15T16:54:36.317Z,53.00
2018-04-15T16:57:03.797Z,53.54
2018-04-15T16:59:31.259Z,53.82
2018-04-15T17:01:58.813Z,53.42
2018-04-15T17:04:26.266Z,53.96
2018-04-15T17:06:53.761Z,54.55
2018-04-15T17:09:21.217Z,55.34
2018-04-15T17:11:48.707Z,55.56
2018-04-15T17:14:16.165Z,56.33
2018-04-15T17:16:43.651Z,56.14
2018-04-15T17:19:11.113Z,56.28
2018-04-15T17:21:39.202Z,56.47
2018-04-15T17:24:07.043Z,56.35
2018-04-15T17:26:34.719Z,57.09
2018-04-15T17:29:02.381Z,57.33
2018-04-15T17:31:30.026Z,57.57
2018-04-15T17:33:57.630Z,57.46
2018-04-15T17:36:25.149Z,57.92
2018-04-15T17:38:52.613Z,57.76
2018-04-15T17:41:20.149Z,58.23
2018-04-15T17:43:47.677Z,58.88
2018-04-15T17:46:15.158Z,59.40
2018-04-15T17:48:42.647Z,60.36
2018-04-15T17:51:10.110Z,61.01
2018-04-15T17:53:37.602Z,61.49
2018-04-15T17:56:05.062Z,61.88
2018-04-15T17:58:32.533Z,62.64
2018-04-15T18:00:59.998Z,62.88
2018-04-15T18:03:27.490Z,62.80
2018-04-15T18:05:54.953Z,63.46
2018-04-15T18:08:22.431Z,63.54
2018-04-15T18:10:49.896Z,64.30
2018-04-15T18:13:17.379Z,64.54
2018-04-15T18:15:44.834Z,64.88
2018-04-15T18:18:12.315Z,66.02
2018-04-15T18:20:39.771Z,67.33
2018-04-15T18:23:07.229Z,66.65
2018-04-15T18:25:34.713Z,68.74
2018-04-15T18:28:02.177Z,69.13
2018-04-15T18:30:29.661Z,70.45
2018-04-15T18:32:57.119Z,70.87
2018-04-15T18:35:24.602Z,71.35
2018-04-15T18:37:52.063Z,71.34
2018-04-15T18:40:19.554Z,70.87
2018-04-15T18:42:47.013Z,71.26
2018-04-15T18:45:14.507Z,71.75
2018-04-15T18:47:41.978Z,72.69
2018-04-15T18:50:09.517Z,73.53
2018-04-15T18:52:36.948Z,73.46
2018-04-15T18:55:04.422Z,73.76
2018-04-15T18:57:31.883Z,73.61
2018-04-15T18:59:59.369Z,74.10
2018-04-15T19:02:26.830Z,74.38
2018-04-15T19:04:54.306Z,74.09
2018-04-15T19:07:21.761Z,74.23
2018-04-15T19:09:49.257Z,74.55
2018-04-15T19:12:16.748Z,76.00
2018-04-15T19:14:44.229Z,77.16
2018-04-15T19:17:11.703Z,76.37
2018-04-15T19:19:39.193Z,76.05
2018-04-15T19:22:06.667Z,76.24
2018-04-15T19:24:34.142Z,76.60
2018-04-15T19:27:01.603Z,77.33
2018-04-15T19:29:29.090Z,77.92
2018-04-15T19:31:56.550Z,79.31
2018-04-15T19:34:24.037Z,79.50
2018-04-15T19:36:51.547Z,79.36
2018-04-15T19:39:19.025Z,79.61
2018-04-15T19:41:46.568Z,79.62
2018-04-15T19:44:14.065Z,79.36
2018-04-15T19:46:41.524Z,79.06
2018-04-15T19:49:09.011Z,78.73
2018-04-15T19:51:36.488Z,78.34
2018-04-15T19:54:03.977Z,79.23
2018-04-15T19:56:31.450Z,79.44
2018-04-15T19:58:58.935Z,78.96
2018-04-15T20:01:26.396Z,78.96
2018-04-15T20:03:53.873Z,79.49
2018-04-15T20:06:21.330Z,79.42
2018-04-15T20:08:48.813Z,79.45
2018-04-15T20:11:16.289Z,80.33
2018-04-15T20:13:43.797Z,80.13
2018-04-15T20:16:11.283Z,80.54
2018-04-15T20:18:38.758Z,81.32
2018-04-15T20:21:06.298Z,81.80
2018-04-15T20:23:33.795Z,81.40
2018-04-15T20:26:01.292Z,81.03
2018-04-15T20:28:28.762Z,81.01
2018-04-15T20:30:56.247Z,81.45
2018-04-15T20:33:23.705Z,81.51
2018-04-15T20:35:51.185Z,81.73
2018-04-15T20:38:18.670Z,80.00
2018-04-15T20:40:46.154Z,80.82
2018-04-15T20:43:13.618Z,81.05
2018-04-15T20:45:41.106Z,80.49
2018-04-15T20:48:08.566Z,79.80
2018-04-15T20:50:36.055Z,78.98
2018-04-15T20:53:03.515Z,78.51
2018-04-15T20:55:30.993Z,79.81
2018-04-15T20:57:58.482Z,79.39
2018-04-15T21:00:26.020Z,80.05
2018-04-15T21:02:53.482Z,80.33
2018-04-15T21:05:21.005Z,80.96
2018-04-15T21:07:48.483Z,80.90
2018-04-15T21:10:15.973Z,80.35
2018-04-15T21:12:43.432Z,79.16
2018-04-15T21:15:10.915Z,79.12
2018-04-15T21:17:38.369Z,78.76
2018-04-15T21:20:05.863Z,78.03
2018-04-15T21:22:33.326Z,79.26
2018-04-15T21:25:00.824Z,81.19
2018-04-15T21:27:28.298Z,80.97
2018-04-15T21:29:55.773Z,81.58
2018-04-15T21:32:23.230Z,82.39
2018-04-15T21:34:50.705Z,82.72
2018-04-15T21:37:18.166Z,82.75
2018-04-15T21:39:45.657Z,83.34
2018-04-15T21:42:13.113Z,83.87
2018-04-15T21:44:41.538Z,84.15
2018-04-15T21:47:09.046Z,84.62
2018-04-15T21:49:36.530Z,85.33
2018-04-15T21:52:03.994Z,85.98
2018-04-15T21:54:31.478Z,86.49
2018-04-15T21:56:58.949Z,86.80
2018-04-15T21:59:26.426Z,87.23
2018-04-15T22:01:53.877Z,87.50
2018-04-15T22:04:21.369Z,88.00
2018-04-15T22:06:48.831Z,88.08
2018-04-15T22:09:16.297Z,88.00
2018-04-15T22:11:55.552Z,88.10
2018-04-15T22:14:23.056Z,88.20
2018-04-15T22:16:50.513Z,87.59
2018-04-15T22:19:18.006Z,87.41
2018-04-15T22:21:45.469Z,87.19
2018-04-15T22:24:12.969Z,87.03
2018-04-15T22:26:40.421Z,86.43
2018-04-15T22:29:07.901Z,86.67
2018-04-15T22:31:35.361Z,87.16
2018-04-15T22:34:02.818Z,87.39
2018-04-15T22:36:30.299Z,87.44
2018-04-15T22:38:57.773Z,87.38
2018-04-15T22:41:25.247Z,87.46
2018-04-15T22:43:52.710Z,87.59
2018-04-15T22:46:20.186Z,87.30
2018-04-15T22:48:47.643Z,87.48
2018-04-15T22:51:15.133Z,88.01
2018-04-15T22:53:42.586Z,88.08
2018-04-15T22:56:10.066Z,88.19
2018-04-15T22:58:43.146Z,88.53
2018-04-15T23:01:10.618Z,88.57
2018-04-15T23:03:38.070Z,89.10
2018-04-15T23:06:05.560Z,88.67
2018-04-15T23:08:33.014Z,88.48
2018-04-15T23:11:00.490Z,88.30
2018-04-15T23:13:27.950Z,87.79
2018-04-15T23:15:55.460Z,87.75
2018-04-15T23:18:22.914Z,86.38
2018-04-15T23:20:50.391Z,86.27
2018-04-15T23:23:17.862Z,86.80
2018-04-15T23:25:45.353Z,86.79
2018-04-15T23:28:12.817Z,86.98
2018-04-15T23:30:40.289Z,86.02
2018-04-15T23:33:07.748Z,86.78
2018-04-15T23:35:35.233Z,87.01
2018-04-15T23:38:02.726Z,87.19
2018-04-15T23:40:30.213Z,87.18
2018-04-15T23:42:57.670Z,87.27
2018-04-15T23:45:25.169Z,87.09
2018-04-15T23:47:52.628Z,87.30
2018-04-15T23:50:20.135Z,87.16
2018-04-15T23:52:47.596Z,86.77
2018-04-15T23:55:15.087Z,87.02
2018-04-15T23:57:42.555Z,87.18
